createdAt,value
2017-04-28T00:01:53.096Z,21.30
2017-04-28T00:04:21.715Z,21.30
2017-04-28T00:06:50.081Z,21.30
2017-04-28T00:09:18.453Z,21.30
2017-04-28T00:11:46.868Z,21.30
2017-04-28T00:14:28.186Z,21.30
2017-04-28T00:16:57.356Z,21.30
2017-04-28T00:24:57.544Z,21.20
2017-04-28T00:27:40.470Z,21.20
2017-04-28T00:30:08.968Z,21.20
2017-04-28T00:32:41.204Z,21.30
2017-04-28T00:35:10.367Z,21.20
2017-04-28T00:37:42.441Z,21.20
2017-04-28T00:40:10.856Z,21.20
2017-04-28T00:42:42.573Z,21.30
2017-04-28T00:45:11.044Z,21.20
2017-04-28T00:47:40.901Z,21.30
2017-04-28T00:53:05.169Z,21.20
2017-04-28T00:55:40.607Z,21.30
2017-04-28T00:58:09.019Z,21.30
2017-04-28T01:00:41.280Z,21.20
2017-04-28T01:06:04.710Z,21.20
2017-04-28T01:08:33.102Z,21.20
2017-04-28T01:11:01.494Z,21.20
2017-04-28T01:13:42.308Z,21.20
2017-04-28T01:16:10.669Z,21.20
2017-04-28T01:18:39.782Z,21.20
2017-04-28T01:24:02.937Z,21.20
2017-04-28T01:26:42.476Z,21.20
2017-04-28T01:29:11.633Z,21.20
2017-04-28T01:31:40.930Z,21.20
2017-04-28T01:37:03.091Z,21.20
2017-04-28T01:39:41.428Z,21.20
2017-04-28T01:47:59.307Z,21.20
2017-04-28T01:50:28.439Z,21.20
2017-04-28T01:52:56.914Z,21.20
2017-04-28T01:55:40.564Z,21.20
2017-04-28T02:01:02.414Z,21.20
2017-04-28T02:03:40.873Z,21.20
2017-04-28T02:06:10.118Z,21.20
2017-04-28T02:08:41.416Z,21.20
2017-04-28T02:11:10.564Z,21.20
2017-04-28T02:13:42.482Z,21.20
2017-04-28T02:19:05.850Z,21.20
2017-04-28T02:21:41.333Z,21.10
2017-04-28T02:24:29.333Z,21.10
2017-04-28T02:29:52.736Z,21.20
2017-04-28T02:32:40.097Z,21.20
2017-04-28T02:35:08.500Z,21.20
2017-04-28T02:37:43.127Z,21.20
2017-04-28T02:40:11.553Z,21.20
2017-04-28T02:42:41.622Z,21.20
2017-04-28T02:45:10.108Z,21.20
2017-04-28T02:47:41.810Z,21.20
2017-04-28T02:50:10.194Z,21.20
2017-04-28T02:52:41.953Z,21.20
2017-04-28T02:55:10.325Z,21.20
2017-04-28T02:57:42.285Z,21.20
2017-04-28T03:00:10.672Z,21.20
2017-04-28T03:02:42.278Z,21.20
2017-04-28T03:05:11.430Z,21.20
2017-04-28T03:07:41.536Z,21.20
2017-04-28T03:13:03.511Z,21.20
2017-04-28T03:15:41.717Z,21.20
2017-04-28T03:18:10.133Z,21.20
2017-04-28T03:20:39.245Z,21.20
2017-04-28T03:23:07.630Z,21.10
2017-04-28T03:25:42.065Z,21.20
2017-04-28T03:28:10.432Z,21.10
2017-04-28T03:30:38.975Z,21.10
2017-04-28T03:38:57.336Z,21.10
2017-04-28T03:41:25.784Z,21.10
2017-04-28T03:43:54.149Z,21.10
2017-04-28T03:46:42.468Z,21.10
2017-04-28T03:49:11.577Z,21.10
2017-04-28T03:51:41.615Z,21.10
2017-04-28T03:54:29.315Z,21.10
2017-04-28T03:56:58.460Z,21.10
2017-04-28T04:07:52.277Z,21.10
2017-04-28T04:10:39.813Z,21.10
2017-04-28T04:13:08.222Z,21.10
2017-04-28T04:15:43.673Z,21.10
2017-04-28T04:18:12.816Z,21.10
2017-04-28T04:20:41.188Z,21.10
2017-04-28T04:23:09.549Z,21.10
2017-04-28T04:25:43.644Z,21.10
2017-04-28T04:28:12.773Z,21.10
2017-04-28T04:30:41.296Z,21.10
2017-04-28T04:33:09.733Z,21.10
2017-04-28T04:35:41.658Z,21.10
2017-04-28T04:38:11.164Z,21.10
2017-04-28T04:40:40.274Z,21.10
2017-04-28T04:43:08.639Z,21.10
2017-04-28T04:45:41.350Z,21.00
2017-04-28T04:48:09.729Z,21.10
2017-04-28T04:50:38.115Z,21.10
2017-04-28T04:53:06.517Z,21.10
2017-04-28T04:55:42.172Z,21.10
2017-04-28T04:58:10.595Z,21.10
2017-04-28T05:00:38.979Z,21.20
2017-04-28T05:03:07.397Z,21.20
2017-04-28T05:05:42.155Z,21.10
2017-04-28T05:08:10.525Z,21.20
2017-04-28T05:10:42.853Z,21.10
2017-04-28T05:13:11.220Z,21.10
2017-04-28T05:15:40.987Z,21.10
2017-04-28T05:18:09.405Z,21.10
2017-04-28T05:20:41.137Z,21.10
2017-04-28T05:26:05.090Z,20.20
2017-04-28T05:28:33.461Z,18.40
2017-04-28T05:31:01.846Z,19.10
2017-04-28T05:33:40.171Z,19.80
2017-04-28T05:36:08.546Z,20.20
2017-04-28T05:38:36.905Z,20.40
2017-04-28T05:41:05.327Z,20.50
2017-04-28T05:43:41.553Z,20.60
2017-04-28T05:49:04.845Z,20.80
2017-04-28T05:51:41.609Z,20.90
2017-04-28T05:54:10.052Z,20.90
2017-04-28T05:56:38.412Z,21.00
2017-04-28T05:59:06.787Z,21.00
2017-04-28T06:01:41.967Z,21.00
2017-04-28T06:09:48.363Z,21.10
2017-04-28T06:12:39.909Z,21.10
2017-04-28T06:15:08.314Z,21.20
2017-04-28T06:17:41.188Z,21.20
2017-04-28T06:23:04.565Z,21.10
2017-04-28T06:25:41.015Z,21.20
2017-04-28T06:31:03.561Z,21.20
2017-04-28T06:33:42.202Z,21.20
2017-04-28T06:44:53.134Z,21.10
2017-04-28T06:47:40.821Z,21.10
2017-04-28T06:58:51.020Z,21.10
2017-04-28T07:01:19.390Z,21.10
2017-04-28T07:03:47.760Z,21.10
2017-04-28T07:06:40.193Z,21.10
2017-04-28T07:09:09.300Z,21.10
2017-04-28T07:11:41.497Z,21.00
2017-04-28T07:14:09.857Z,21.00
2017-04-28T07:16:38.225Z,21.10
2017-04-28T07:19:06.628Z,21.10
2017-04-28T07:21:40.844Z,21.10
2017-04-28T07:24:09.243Z,21.10
2017-04-28T07:26:41.208Z,21.10
2017-04-28T07:29:09.597Z,21.00
2017-04-28T07:31:41.517Z,21.10
2017-04-28T07:34:29.213Z,21.10
2017-04-28T07:36:58.328Z,21.10
2017-04-28T07:39:26.695Z,21.10
2017-04-28T07:41:55.105Z,21.10
2017-04-28T07:44:23.483Z,21.20
2017-04-28T07:46:51.853Z,21.20
2017-04-28T07:49:41.683Z,21.20
2017-04-28T07:52:10.048Z,21.20
2017-04-28T07:54:42.165Z,21.20
2017-04-28T07:57:10.530Z,21.20
2017-04-28T07:59:38.913Z,21.20
2017-04-28T08:05:01.527Z,21.20
2017-04-28T08:07:42.782Z,21.30
2017-04-28T08:13:05.718Z,21.20
2017-04-28T08:15:36.160Z,21.20
2017-04-28T08:18:08.188Z,21.20
2017-04-28T08:20:37.485Z,21.20
2017-04-28T08:23:06.759Z,21.20
2017-04-28T08:25:36.033Z,21.20
2017-04-28T08:28:07.921Z,21.20
2017-04-28T08:30:39.821Z,21.20
2017-04-28T08:33:16.094Z,21.10
2017-04-28T08:35:44.597Z,21.20
2017-04-28T08:38:13.312Z,21.20
2017-04-28T08:40:54.710Z,21.20
2017-04-28T08:43:42.415Z,21.10
2017-04-28T08:46:13.901Z,21.10
2017-04-28T08:48:43.170Z,21.10
2017-04-28T08:51:14.665Z,21.10
2017-04-28T08:53:47.513Z,21.10
2017-04-28T08:56:16.782Z,21.10
2017-04-28T08:58:46.927Z,21.10
2017-04-28T09:01:18.860Z,21.10
2017-04-28T09:03:47.378Z,21.20
2017-04-28T09:06:17.484Z,21.10
2017-04-28T09:08:45.893Z,21.10
2017-04-28T09:11:22.961Z,21.10
2017-04-28T09:14:03.244Z,21.10
2017-04-28T09:16:39.096Z,21.10
2017-04-28T09:19:16.190Z,21.10
2017-04-28T09:24:39.821Z,21.10
2017-04-28T09:30:05.289Z,21.10
2017-04-28T09:32:44.581Z,21.10
2017-04-28T09:38:08.881Z,21.00
2017-04-28T09:40:43.777Z,21.00
2017-04-28T09:49:02.725Z,21.00
2017-04-28T09:51:32.413Z,21.00
2017-04-28T09:54:00.896Z,21.10
2017-04-28T09:56:46.509Z,21.00
2017-04-28T09:59:18.858Z,21.00
2017-04-28T10:01:50.217Z,21.00
2017-04-28T10:04:19.272Z,21.00
2017-04-28T10:06:50.791Z,21.00
2017-04-28T10:09:40.636Z,21.00
2017-04-28T10:12:12.113Z,21.00
2017-04-28T10:17:46.148Z,21.00
2017-04-28T10:20:16.234Z,21.00
2017-04-28T10:22:51.709Z,21.00
2017-04-28T10:25:24.762Z,21.00
2017-04-28T10:27:54.267Z,20.90
2017-04-28T10:30:29.701Z,20.90
2017-04-28T10:32:58.961Z,21.00
2017-04-28T10:35:41.310Z,20.90
2017-04-28T10:41:05.857Z,21.00
2017-04-28T10:43:51.822Z,21.00
2017-04-28T10:46:40.967Z,21.00
2017-04-28T10:49:16.214Z,21.00
2017-04-28T10:51:55.508Z,20.90
2017-04-28T10:54:31.932Z,21.00
2017-04-28T10:57:03.300Z,21.00
2017-04-28T10:59:33.282Z,21.00
2017-04-28T11:02:02.375Z,21.00
2017-04-28T11:04:37.780Z,21.00
2017-04-28T11:13:05.534Z,20.90
2017-04-28T11:15:42.072Z,21.00
2017-04-28T11:18:13.364Z,21.00
2017-04-28T11:20:52.057Z,21.00
2017-04-28T11:23:23.457Z,20.90
2017-04-28T11:25:53.416Z,21.00
2017-04-28T11:28:23.368Z,21.00
2017-04-28T11:30:53.650Z,21.00
2017-04-28T11:33:41.893Z,21.00
2017-04-28T11:36:13.757Z,21.00
2017-04-28T11:38:46.096Z,20.90
2017-04-28T11:41:14.457Z,21.00
2017-04-28T11:43:44.551Z,20.90
2017-04-28T11:46:21.225Z,20.90
2017-04-28T11:48:50.615Z,20.90
2017-04-28T11:51:22.382Z,21.00
2017-04-28T11:54:01.570Z,20.90
2017-04-28T11:56:30.012Z,20.90
2017-04-28T11:59:01.200Z,20.90
2017-04-28T12:01:35.312Z,20.90
2017-04-28T12:04:14.659Z,20.90
2017-04-28T12:06:43.378Z,20.90
2017-04-28T12:09:16.461Z,20.90
2017-04-28T12:11:49.150Z,20.90
2017-04-28T12:14:19.325Z,20.90
2017-04-28T12:16:48.630Z,20.90
2017-04-28T12:19:26.720Z,20.90
2017-04-28T12:24:55.772Z,21.00
2017-04-28T12:30:18.714Z,21.00
2017-04-28T12:32:47.095Z,21.00
2017-04-28T12:38:16.029Z,21.00
2017-04-28T12:40:46.347Z,21.00
2017-04-28T12:43:41.875Z,21.10
2017-04-28T12:49:06.533Z,21.00
2017-04-28T12:51:37.751Z,21.10
2017-04-28T12:54:07.866Z,21.00
2017-04-28T12:56:38.857Z,21.00
2017-04-28T13:04:51.647Z,21.00
2017-04-28T13:07:21.521Z,21.10
2017-04-28T13:09:57.171Z,21.10
2017-04-28T13:12:42.001Z,21.10
2017-04-28T13:15:14.024Z,21.00
2017-04-28T13:20:38.134Z,21.00
2017-04-28T13:23:07.438Z,21.00
2017-04-28T13:25:39.809Z,21.00
2017-04-28T13:28:09.065Z,21.00
2017-04-28T13:30:38.469Z,21.00
2017-04-28T13:33:06.952Z,21.00
2017-04-28T13:35:39.125Z,21.00
2017-04-28T13:43:59.160Z,21.00
2017-04-28T13:46:31.299Z,21.00
2017-04-28T13:49:05.757Z,21.00
2017-04-28T13:51:35.684Z,21.00
2017-04-28T13:54:04.862Z,21.00
2017-04-28T13:59:41.334Z,21.00
2017-04-28T14:02:09.893Z,21.00
2017-04-28T14:04:39.916Z,21.00
2017-04-28T14:07:11.917Z,21.00
2017-04-28T14:09:42.089Z,20.90
2017-04-28T14:12:10.452Z,21.00
2017-04-28T14:14:42.842Z,21.00
2017-04-28T14:17:15.153Z,21.00
2017-04-28T14:19:53.883Z,20.90
2017-04-28T14:22:23.252Z,21.00
2017-04-28T14:24:52.322Z,21.00
2017-04-28T14:27:20.755Z,21.00
2017-04-28T14:29:50.010Z,20.90
2017-04-28T14:32:18.418Z,20.90
2017-04-28T14:34:55.193Z,20.90
2017-04-28T14:37:41.313Z,20.90
2017-04-28T14:40:10.629Z,20.90
2017-04-28T14:45:36.545Z,20.90
2017-04-28T14:48:07.843Z,20.90
2017-04-28T14:50:39.782Z,20.90
2017-04-28T14:53:09.057Z,20.90
2017-04-28T14:55:38.199Z,20.90
2017-04-28T14:58:07.809Z,20.90
2017-04-28T15:00:42.138Z,20.90
2017-04-28T15:06:05.452Z,20.90
2017-04-28T15:08:36.676Z,20.90
2017-04-28T15:13:59.898Z,20.90
2017-04-28T15:16:41.829Z,20.90
2017-04-28T15:27:49.923Z,20.90
2017-04-28T15:30:41.598Z,20.90
2017-04-28T15:36:05.429Z,20.90
2017-04-28T15:38:43.199Z,20.90
2017-04-28T15:41:12.529Z,21.00
2017-04-28T15:43:42.450Z,21.00
2017-04-28T15:46:13.699Z,20.90
2017-04-28T15:48:42.114Z,20.90
2017-04-28T15:51:10.658Z,20.90
2017-04-28T15:53:39.024Z,20.90
2017-04-28T15:56:10.869Z,20.90
2017-04-28T15:58:55.459Z,20.90
2017-04-28T16:01:24.680Z,20.90
2017-04-28T16:03:53.041Z,20.90
2017-04-28T16:06:41.132Z,20.90
2017-04-28T16:09:10.441Z,20.90
2017-04-28T16:11:49.630Z,20.90
2017-04-28T16:14:18.208Z,20.90
2017-04-28T16:16:49.587Z,20.90
2017-04-28T16:19:18.018Z,20.90
2017-04-28T16:21:47.556Z,20.90
2017-04-28T16:24:15.934Z,20.90
2017-04-28T16:26:44.361Z,20.90
2017-04-28T16:29:14.275Z,20.90
2017-04-28T16:31:44.329Z,20.90
2017-04-28T16:37:07.352Z,20.90
2017-04-28T16:39:37.191Z,20.90
2017-04-28T16:42:05.718Z,20.90
2017-04-28T16:44:41.932Z,20.80
2017-04-28T16:47:10.320Z,20.80
2017-04-28T16:49:38.702Z,20.80
2017-04-28T16:52:07.116Z,20.80
2017-04-28T16:54:38.481Z,21.30
2017-04-28T17:00:00.672Z,21.10
2017-04-28T17:02:41.915Z,21.10
2017-04-28T17:05:10.478Z,21.10
2017-04-28T17:07:39.007Z,21.10
2017-04-28T17:10:10.146Z,21.10
2017-04-28T17:12:44.173Z,21.00
2017-04-28T17:15:13.615Z,21.00
2017-04-28T17:17:47.591Z,21.00
2017-04-28T17:20:16.824Z,21.00
2017-04-28T17:25:26.122Z,21.00
2017-04-28T17:27:57.509Z,21.00
2017-04-28T17:30:42.760Z,21.10
2017-04-28T17:33:12.033Z,21.10
2017-04-28T17:35:41.409Z,21.10
2017-04-28T17:38:23.665Z,21.10
2017-04-28T17:40:53.010Z,21.00
2017-04-28T17:43:21.472Z,21.10
2017-04-28T17:45:49.936Z,21.00
2017-04-28T17:48:29.741Z,21.00
2017-04-28T17:53:53.308Z,21.00
2017-04-28T17:56:22.349Z,21.00
2017-04-28T17:58:57.748Z,21.00
2017-04-28T18:01:36.177Z,21.00
2017-04-28T18:07:02.993Z,21.00
2017-04-28T18:09:42.751Z,21.00
2017-04-28T18:20:54.709Z,21.00
2017-04-28T18:23:42.627Z,21.00
2017-04-28T18:29:10.493Z,20.90
2017-04-28T18:31:43.337Z,20.90
2017-04-28T18:34:11.744Z,20.90
2017-04-28T18:36:42.557Z,20.90
2017-04-28T18:45:03.012Z,20.90
2017-04-28T18:47:32.953Z,20.80
2017-04-28T18:50:08.972Z,20.80
2017-04-28T18:52:38.224Z,20.80
2017-04-28T18:55:17.509Z,20.90
2017-04-28T19:00:42.354Z,20.90
2017-04-28T19:03:12.125Z,20.90
2017-04-28T19:05:42.717Z,21.00
2017-04-28T19:16:49.704Z,21.00
2017-04-28T19:19:42.073Z,21.00
2017-04-28T19:25:06.101Z,21.00
2017-04-28T19:27:41.518Z,21.00
2017-04-28T19:33:04.225Z,21.10
2017-04-28T19:35:43.426Z,21.10
2017-04-28T19:46:43.539Z,21.20
2017-04-28T19:58:05.766Z,21.10
2017-04-28T20:00:34.158Z,21.10
2017-04-28T20:05:57.789Z,21.20
2017-04-28T20:08:27.339Z,21.10
2017-04-28T20:10:56.486Z,21.10
2017-04-28T20:13:25.803Z,21.10
2017-04-28T20:15:55.175Z,21.10
2017-04-28T20:18:42.111Z,21.10
2017-04-28T20:21:11.553Z,21.10
2017-04-28T20:23:43.514Z,21.10
2017-04-28T20:26:12.810Z,21.10
2017-04-28T20:28:44.062Z,21.10
2017-04-28T20:31:12.539Z,21.10
2017-04-28T20:33:41.031Z,21.10
2017-04-28T20:36:09.572Z,21.00
2017-04-28T20:38:43.941Z,21.00
2017-04-28T20:41:13.024Z,21.00
2017-04-28T20:43:42.318Z,21.10
2017-04-28T20:46:20.889Z,21.10
2017-04-28T20:48:56.026Z,21.20
2017-04-28T20:51:25.653Z,21.20
2017-04-28T20:53:54.769Z,21.20
2017-04-28T20:56:23.873Z,21.20
2017-04-28T20:58:55.075Z,21.20
2017-04-28T21:01:24.325Z,21.20
2017-04-28T21:03:53.534Z,21.20
2017-04-28T21:06:42.373Z,21.20
2017-04-28T21:09:10.845Z,21.30
2017-04-28T21:11:43.571Z,21.30
2017-04-28T21:17:08.213Z,21.30
2017-04-28T21:19:37.427Z,21.40
2017-04-28T21:22:08.623Z,21.30
2017-04-28T21:24:43.901Z,21.40
2017-04-28T21:27:12.412Z,21.40
2017-04-28T21:29:41.942Z,21.40
2017-04-28T21:32:11.197Z,21.40
2017-04-28T21:34:43.107Z,21.40
2017-04-28T21:37:24.431Z,21.40
2017-04-28T21:39:52.840Z,21.50
2017-04-28T21:42:28.912Z,21.40
2017-04-28T21:44:59.541Z,21.40
2017-04-28T21:47:29.610Z,21.40
2017-04-28T21:49:58.776Z,21.40
2017-04-28T21:52:41.853Z,21.50
2017-04-28T21:58:05.877Z,21.50
2017-04-28T22:00:45.357Z,21.50
2017-04-28T22:03:14.723Z,21.50
2017-04-28T22:05:43.213Z,21.50
2017-04-28T22:08:12.568Z,21.50
2017-04-28T22:10:55.121Z,21.50
2017-04-28T22:13:24.892Z,21.50
2017-04-28T22:16:06.821Z,21.50
2017-04-28T22:18:36.069Z,21.60
2017-04-28T22:21:04.733Z,21.60
2017-04-28T22:23:42.881Z,21.60
2017-04-28T22:26:21.436Z,21.60
2017-04-28T22:28:49.856Z,21.60
2017-04-28T22:31:41.382Z,21.60
2017-04-28T22:39:50.021Z,21.60
2017-04-28T22:42:19.386Z,21.60
2017-04-28T22:45:00.848Z,21.60
2017-04-28T22:47:31.138Z,21.60
2017-04-28T22:49:59.612Z,21.60
2017-04-28T22:52:28.254Z,21.60
2017-04-28T22:54:59.653Z,21.60
2017-04-28T22:57:28.891Z,21.60
2017-04-28T23:02:54.020Z,21.60
2017-04-28T23:05:42.203Z,21.60
2017-04-28T23:08:11.722Z,21.60
2017-04-28T23:10:40.150Z,21.70
2017-04-28T23:22:00.257Z,21.70
2017-04-28T23:24:28.649Z,21.60
2017-04-28T23:26:58.733Z,21.60
2017-04-28T23:29:27.158Z,21.60
2017-04-28T23:31:57.098Z,21.60
2017-04-28T23:34:28.261Z,21.70
2017-04-28T23:36:58.420Z,21.70
2017-04-28T23:39:27.684Z,21.70
2017-04-28T23:42:09.104Z,21.60
2017-04-28T23:44:51.287Z,21.60
2017-04-28T23:47:41.497Z,21.60
2017-04-28T23:50:10.725Z,21.60
2017-04-28T23:52:42.369Z,21.60
2017-04-28T23:55:11.461Z,21.60
2017-04-28T23:57:42.738Z,21.60
